sensor_id;sensor_type;location;lat;lon;timestamp;P1;durP1;ratioP1;P2;durP2;ratioP2
80748;SDS011;70145;53.746;9.970;2024-03-23T00:54:06;8.80;;;2.22;;
80748;SDS011;70145;53.746;9.970;2024-03-23T00:56:31;8.90;;;1.60;;
80748;SDS011;70145;53.746;9.970;2024-03-23T00:58:57;14.07;;;1.55;;
80748;SDS011;70145;53.746;9.970;2024-03-23T01:01:22;8.32;;;1.10;;
80748;SDS011;70145;53.746;9.970;2024-03-23T01:03:48;11.17;;;1.77;;
80748;SDS011;70145;53.746;9.970;2024-03-23T01:06:13;16.92;;;2.05;;
80748;SDS011;70145;53.746;9.970;2024-03-23T01:08:38;8.37;;;1.70;;
80748;SDS011;70145;53.746;9.970;2024-03-23T01:11:04;9.13;;;2.07;;
80748;SDS011;70145;53.746;9.970;2024-03-23T01:13:29;10.48;;;1.67;;
80748;SDS011;70145;53.746;9.970;2024-03-23T01:15:55;8.82;;;1.63;;
80748;SDS011;70145;53.746;9.970;2024-03-23T01:18:24;10.88;;;1.95;;
80748;SDS011;70145;53.746;9.970;2024-03-23T01:20:51;7.45;;;1.27;;
80748;SDS011;70145;53.746;9.970;2024-03-23T01:23:17;13.52;;;2.47;;
80748;SDS011;70145;53.746;9.970;2024-03-23T01:25:42;7.18;;;1.27;;
80748;SDS011;70145;53.746;9.970;2024-03-23T01:28:08;7.38;;;1.73;;
80748;SDS011;70145;53.746;9.970;2024-03-23T01:30:34;8.13;;;1.92;;
80748;SDS011;70145;53.746;9.970;2024-03-23T01:33:00;9.35;;;1.55;;
80748;SDS011;70145;53.746;9.970;2024-03-23T01:35:25;11.77;;;2.30;;
80748;SDS011;70145;53.746;9.970;2024-03-23T01:37:51;9.50;;;1.60;;
80748;SDS011;70145;53.746;9.970;2024-03-23T01:40:16;10.88;;;2.03;;
80748;SDS011;70145;53.746;9.970;2024-03-23T01:42:42;10.68;;;1.23;;
80748;SDS011;70145;53.746;9.970;2024-03-23T01:45:08;11.05;;;2.30;;
80748;SDS011;70145;53.746;9.970;2024-03-23T01:47:34;7.80;;;1.67;;
80748;SDS011;70145;53.746;9.970;2024-03-23T01:50:00;10.95;;;2.13;;
80748;SDS011;70145;53.746;9.970;2024-03-23T01:52:26;11.20;;;1.83;;
80748;SDS011;70145;53.746;9.970;2024-03-23T01:54:55;8.63;;;1.73;;
80748;SDS011;70145;53.746;9.970;2024-03-23T01:57:20;8.63;;;1.55;;
80748;SDS011;70145;53.746;9.970;2024-03-23T01:59:46;10.40;;;1.95;;
80748;SDS011;70145;53.746;9.970;2024-03-23T02:02:12;10.93;;;2.08;;
80748;SDS011;70145;53.746;9.970;2024-03-23T02:04:38;10.75;;;1.50;;
80748;SDS011;70145;53.746;9.970;2024-03-23T02:07:03;6.07;;;1.30;;
80748;SDS011;70145;53.746;9.970;2024-03-23T02:09:31;6.00;;;1.50;;
80748;SDS011;70145;53.746;9.970;2024-03-23T02:11:56;5.45;;;1.35;;
80748;SDS011;70145;53.746;9.970;2024-03-23T02:14:22;12.05;;;1.80;;
80748;SDS011;70145;53.746;9.970;2024-03-23T02:16:47;9.57;;;1.93;;
80748;SDS011;70145;53.746;9.970;2024-03-23T02:19:13;8.68;;;2.42;;
80748;SDS011;70145;53.746;9.970;2024-03-23T02:21:38;10.90;;;1.67;;
80748;SDS011;70145;53.746;9.970;2024-03-23T02:24:03;10.53;;;1.80;;
80748;SDS011;70145;53.746;9.970;2024-03-23T02:26:29;10.82;;;1.92;;
80748;SDS011;70145;53.746;9.970;2024-03-23T02:28:54;7.47;;;1.47;;
80748;SDS011;70145;53.746;9.970;2024-03-23T02:31:19;6.33;;;1.50;;
80748;SDS011;70145;53.746;9.970;2024-03-23T02:33:45;7.45;;;1.58;;
80748;SDS011;70145;53.746;9.970;2024-03-23T02:36:11;8.75;;;1.40;;
80748;SDS011;70145;53.746;9.970;2024-03-23T02:38:36;11.00;;;1.67;;
80748;SDS011;70145;53.746;9.970;2024-03-23T02:41:04;7.20;;;1.73;;
80748;SDS011;70145;53.746;9.970;2024-03-23T02:43:30;9.00;;;2.08;;
80748;SDS011;70145;53.746;9.970;2024-03-23T02:45:56;9.40;;;1.80;;
80748;SDS011;70145;53.746;9.970;2024-03-23T02:48:21;9.32;;;2.60;;
80748;SDS011;70145;53.746;9.970;2024-03-23T02:50:46;9.95;;;1.58;;
80748;SDS011;70145;53.746;9.970;2024-03-23T02:53:12;11.03;;;2.33;;
80748;SDS011;70145;53.746;9.970;2024-03-23T02:55:37;8.30;;;2.13;;
80748;SDS011;70145;53.746;9.970;2024-03-23T02:58:02;6.97;;;1.87;;
80748;SDS011;70145;53.746;9.970;2024-03-23T03:00:28;10.82;;;1.92;;
80748;SDS011;70145;53.746;9.970;2024-03-23T03:02:54;7.20;;;1.20;;
80748;SDS011;70145;53.746;9.970;2024-03-23T03:05:19;5.03;;;1.50;;
80748;SDS011;70145;53.746;9.970;2024-03-23T03:07:44;8.67;;;1.73;;
80748;SDS011;70145;53.746;9.970;2024-03-23T03:10:10;7.03;;;2.20;;
80748;SDS011;70145;53.746;9.970;2024-03-23T03:12:36;10.85;;;2.00;;
80748;SDS011;70145;53.746;9.970;2024-03-23T03:15:02;11.18;;;1.55;;
80748;SDS011;70145;53.746;9.970;2024-03-23T03:17:28;7.43;;;1.55;;
80748;SDS011;70145;53.746;9.970;2024-03-23T03:19:54;6.77;;;1.77;;
80748;SDS011;70145;53.746;9.970;2024-03-23T03:22:20;7.90;;;1.48;;
80748;SDS011;70145;53.746;9.970;2024-03-23T03:24:46;5.93;;;1.40;;
80748;SDS011;70145;53.746;9.970;2024-03-23T03:27:12;6.00;;;1.98;;
80748;SDS011;70145;53.746;9.970;2024-03-23T03:29:37;7.13;;;1.70;;
80748;SDS011;70145;53.746;9.970;2024-03-23T03:32:02;6.87;;;1.70;;
80748;SDS011;70145;53.746;9.970;2024-03-23T03:34:28;9.15;;;1.58;;
80748;SDS011;70145;53.746;9.970;2024-03-23T03:36:54;9.35;;;1.85;;
80748;SDS011;70145;53.746;9.970;2024-03-23T03:39:19;10.67;;;1.97;;
80748;SDS011;70145;53.746;9.970;2024-03-23T03:41:44;7.25;;;2.35;;
80748;SDS011;70145;53.746;9.970;2024-03-23T03:44:10;8.18;;;1.50;;
80748;SDS011;70145;53.746;9.970;2024-03-23T03:46:35;7.90;;;1.80;;
80748;SDS011;70145;53.746;9.970;2024-03-23T03:49:00;9.00;;;1.53;;
80748;SDS011;70145;53.746;9.970;2024-03-23T03:51:25;10.87;;;1.70;;
80748;SDS011;70145;53.746;9.970;2024-03-23T03:53:51;5.07;;;1.30;;
80748;SDS011;70145;53.746;9.970;2024-03-23T03:56:16;6.35;;;2.33;;
80748;SDS011;70145;53.746;9.970;2024-03-23T03:58:42;6.50;;;1.42;;
80748;SDS011;70145;53.746;9.970;2024-03-23T04:01:07;7.25;;;1.77;;
80748;SDS011;70145;53.746;9.970;2024-03-23T04:03:33;5.30;;;1.30;;
80748;SDS011;70145;53.746;9.970;2024-03-23T04:05:59;6.75;;;1.67;;
80748;SDS011;70145;53.746;9.970;2024-03-23T04:08:24;8.48;;;1.55;;
80748;SDS011;70145;53.746;9.970;2024-03-23T04:10:50;8.20;;;1.67;;
80748;SDS011;70145;53.746;9.970;2024-03-23T04:13:16;6.78;;;1.23;;
80748;SDS011;70145;53.746;9.970;2024-03-23T04:15:41;7.40;;;1.60;;
80748;SDS011;70145;53.746;9.970;2024-03-23T04:18:07;7.88;;;1.45;;
80748;SDS011;70145;53.746;9.970;2024-03-23T04:20:33;8.63;;;1.83;;
80748;SDS011;70145;53.746;9.970;2024-03-23T04:22:59;5.35;;;1.92;;
80748;SDS011;70145;53.746;9.970;2024-03-23T04:25:25;7.55;;;1.60;;
80748;SDS011;70145;53.746;9.970;2024-03-23T04:27:50;7.20;;;1.70;;
80748;SDS011;70145;53.746;9.970;2024-03-23T04:30:16;8.63;;;1.77;;
80748;SDS011;70145;53.746;9.970;2024-03-23T04:32:42;8.05;;;1.83;;
80748;SDS011;70145;53.746;9.970;2024-03-23T04:35:08;6.32;;;1.40;;
80748;SDS011;70145;53.746;9.970;2024-03-23T04:37:36;6.95;;;1.50;;
80748;SDS011;70145;53.746;9.970;2024-03-23T04:40:02;10.95;;;1.95;;
80748;SDS011;70145;53.746;9.970;2024-03-23T04:42:29;7.50;;;1.60;;
80748;SDS011;70145;53.746;9.970;2024-03-23T04:44:55;6.32;;;1.60;;
80748;SDS011;70145;53.746;9.970;2024-03-23T04:47:20;7.47;;;1.60;;
80748;SDS011;70145;53.746;9.970;2024-03-23T04:49:45;5.28;;;2.03;;
80748;SDS011;70145;53.746;9.970;2024-03-23T04:52:11;5.72;;;1.80;;
80748;SDS011;70145;53.746;9.970;2024-03-23T04:54:37;6.60;;;1.65;;
80748;SDS011;70145;53.746;9.970;2024-03-23T04:57:02;7.63;;;1.83;;
80748;SDS011;70145;53.746;9.970;2024-03-23T04:59:28;3.70;;;1.23;;
80748;SDS011;70145;53.746;9.970;2024-03-23T05:01:53;9.55;;;2.10;;
80748;SDS011;70145;53.746;9.970;2024-03-23T05:04:19;4.83;;;2.00;;
80748;SDS011;70145;53.746;9.970;2024-03-23T05:06:44;13.57;;;3.42;;
80748;SDS011;70145;53.746;9.970;2024-03-23T05:09:09;5.33;;;1.47;;
80748;SDS011;70145;53.746;9.970;2024-03-23T05:11:36;7.60;;;1.60;;
80748;SDS011;70145;53.746;9.970;2024-03-23T05:14:04;8.32;;;2.20;;
80748;SDS011;70145;53.746;9.970;2024-03-23T05:16:30;6.47;;;1.70;;
80748;SDS011;70145;53.746;9.970;2024-03-23T05:18:55;8.13;;;1.40;;
80748;SDS011;70145;53.746;9.970;2024-03-23T05:21:20;7.27;;;1.57;;
80748;SDS011;70145;53.746;9.970;2024-03-23T05:23:46;6.70;;;1.95;;
80748;SDS011;70145;53.746;9.970;2024-03-23T05:26:11;6.97;;;1.40;;
80748;SDS011;70145;53.746;9.970;2024-03-23T05:28:36;9.27;;;2.10;;
80748;SDS011;70145;53.746;9.970;2024-03-23T05:31:02;5.95;;;1.13;;
80748;SDS011;70145;53.746;9.970;2024-03-23T05:33:27;10.10;;;1.83;;
80748;SDS011;70145;53.746;9.970;2024-03-23T05:35:56;6.53;;;2.03;;
80748;SDS011;70145;53.746;9.970;2024-03-23T05:38:22;7.28;;;1.58;;
80748;SDS011;70145;53.746;9.970;2024-03-23T05:40:54;9.10;;;1.70;;
80748;SDS011;70145;53.746;9.970;2024-03-23T05:43:23;7.18;;;1.52;;
80748;SDS011;70145;53.746;9.970;2024-03-23T05:45:55;5.68;;;1.60;;
80748;SDS011;70145;53.746;9.970;2024-03-23T05:48:21;6.03;;;2.00;;
80748;SDS011;70145;53.746;9.970;2024-03-23T05:50:48;8.73;;;2.47;;
80748;SDS011;70145;53.746;9.970;2024-03-23T05:53:14;8.57;;;2.22;;
80748;SDS011;70145;53.746;9.970;2024-03-23T05:58:10;6.00;;;1.50;;
80748;SDS011;70145;53.746;9.970;2024-03-23T06:00:35;8.43;;;1.90;;
80748;SDS011;70145;53.746;9.970;2024-03-23T06:03:01;4.78;;;1.38;;
80748;SDS011;70145;53.746;9.970;2024-03-23T06:05:26;8.27;;;1.42;;
80748;SDS011;70145;53.746;9.970;2024-03-23T06:07:52;10.25;;;1.88;;
80748;SDS011;70145;53.746;9.970;2024-03-23T06:10:18;6.28;;;1.30;;
80748;SDS011;70145;53.746;9.970;2024-03-23T06:12:43;4.65;;;1.17;;
80748;SDS011;70145;53.746;9.970;2024-03-23T06:15:09;5.97;;;1.45;;
80748;SDS011;70145;53.746;9.970;2024-03-23T06:17:35;6.65;;;1.33;;
80748;SDS011;70145;53.746;9.970;2024-03-23T06:20:01;7.03;;;1.58;;
80748;SDS011;70145;53.746;9.970;2024-03-23T06:22:27;8.45;;;2.00;;
80748;SDS011;70145;53.746;9.970;2024-03-23T06:24:52;11.02;;;1.63;;
80748;SDS011;70145;53.746;9.970;2024-03-23T06:27:17;9.27;;;1.52;;
80748;SDS011;70145;53.746;9.970;2024-03-23T06:29:43;12.07;;;1.73;;
80748;SDS011;70145;53.746;9.970;2024-03-23T06:32:09;6.60;;;2.30;;
80748;SDS011;70145;53.746;9.970;2024-03-23T06:34:34;6.70;;;1.60;;
80748;SDS011;70145;53.746;9.970;2024-03-23T06:37:00;6.03;;;1.83;;
80748;SDS011;70145;53.746;9.970;2024-03-23T06:39:25;5.93;;;1.20;;
80748;SDS011;70145;53.746;9.970;2024-03-23T06:41:53;5.83;;;1.30;;
80748;SDS011;70145;53.746;9.970;2024-03-23T06:44:19;7.35;;;1.45;;
80748;SDS011;70145;53.746;9.970;2024-03-23T06:46:45;5.78;;;1.30;;
80748;SDS011;70145;53.746;9.970;2024-03-23T06:49:11;10.30;;;2.17;;
80748;SDS011;70145;53.746;9.970;2024-03-23T06:51:36;7.53;;;2.28;;
80748;SDS011;70145;53.746;9.970;2024-03-23T06:54:03;9.52;;;2.00;;
80748;SDS011;70145;53.746;9.970;2024-03-23T06:56:28;7.18;;;1.50;;
80748;SDS011;70145;53.746;9.970;2024-03-23T06:58:54;8.13;;;1.55;;
80748;SDS011;70145;53.746;9.970;2024-03-23T07:01:19;7.63;;;1.52;;
80748;SDS011;70145;53.746;9.970;2024-03-23T07:03:44;6.28;;;2.08;;
80748;SDS011;70145;53.746;9.970;2024-03-23T07:06:10;6.37;;;2.13;;
80748;SDS011;70145;53.746;9.970;2024-03-23T07:08:35;10.60;;;2.17;;
80748;SDS011;70145;53.746;9.970;2024-03-23T07:11:01;11.93;;;2.67;;
80748;SDS011;70145;53.746;9.970;2024-03-23T07:13:27;10.60;;;2.17;;
80748;SDS011;70145;53.746;9.970;2024-03-23T07:15:52;8.20;;;1.50;;
80748;SDS011;70145;53.746;9.970;2024-03-23T07:18:19;8.55;;;1.90;;
80748;SDS011;70145;53.746;9.970;2024-03-23T07:20:57;10.35;;;1.73;;
80748;SDS011;70145;53.746;9.970;2024-03-23T07:23:26;8.85;;;1.60;;
80748;SDS011;70145;53.746;9.970;2024-03-23T07:28:27;10.13;;;2.10;;
80748;SDS011;70145;53.746;9.970;2024-03-23T07:33:30;9.98;;;1.92;;
80748;SDS011;70145;53.746;9.970;2024-03-23T07:35:56;8.35;;;1.95;;
80748;SDS011;70145;53.746;9.970;2024-03-23T07:38:22;11.93;;;3.05;;
80748;SDS011;70145;53.746;9.970;2024-03-23T07:40:48;13.15;;;2.40;;
80748;SDS011;70145;53.746;9.970;2024-03-23T07:43:20;10.93;;;1.95;;
80748;SDS011;70145;53.746;9.970;2024-03-23T07:45:52;7.20;;;2.10;;
80748;SDS011;70145;53.746;9.970;2024-03-23T07:48:18;10.68;;;1.63;;
80748;SDS011;70145;53.746;9.970;2024-03-23T07:50:43;7.77;;;1.80;;
80748;SDS011;70145;53.746;9.970;2024-03-23T07:53:08;7.90;;;1.83;;
80748;SDS011;70145;53.746;9.970;2024-03-23T07:55:33;9.67;;;2.00;;
80748;SDS011;70145;53.746;9.970;2024-03-23T07:57:59;11.30;;;2.77;;
80748;SDS011;70145;53.746;9.970;2024-03-23T08:00:24;13.65;;;2.10;;
80748;SDS011;70145;53.746;9.970;2024-03-23T08:02:50;10.53;;;1.90;;
80748;SDS011;70145;53.746;9.970;2024-03-23T08:05:16;7.68;;;1.75;;
80748;SDS011;70145;53.746;9.970;2024-03-23T08:07:41;9.60;;;1.77;;
80748;SDS011;70145;53.746;9.970;2024-03-23T08:10:07;9.23;;;1.70;;
80748;SDS011;70145;53.746;9.970;2024-03-23T08:12:32;10.10;;;1.75;;
80748;SDS011;70145;53.746;9.970;2024-03-23T08:14:57;8.40;;;2.08;;
80748;SDS011;70145;53.746;9.970;2024-03-23T08:17:23;7.35;;;1.92;;
80748;SDS011;70145;53.746;9.970;2024-03-23T08:19:48;11.13;;;2.38;;
80748;SDS011;70145;53.746;9.970;2024-03-23T08:22:13;12.13;;;1.83;;
80748;SDS011;70145;53.746;9.970;2024-03-23T08:24:39;7.37;;;1.83;;
80748;SDS011;70145;53.746;9.970;2024-03-23T08:27:04;9.32;;;1.88;;
80748;SDS011;70145;53.746;9.970;2024-03-23T08:29:30;11.25;;;1.80;;
80748;SDS011;70145;53.746;9.970;2024-03-23T08:31:55;6.03;;;1.50;;
80748;SDS011;70145;53.746;9.970;2024-03-23T08:34:20;8.40;;;1.88;;
80748;SDS011;70145;53.746;9.970;2024-03-23T08:36:47;4.88;;;1.70;;
80748;SDS011;70145;53.746;9.970;2024-03-23T08:39:12;8.63;;;2.00;;
80748;SDS011;70145;53.746;9.970;2024-03-23T08:41:37;9.30;;;2.17;;
80748;SDS011;70145;53.746;9.970;2024-03-23T08:44:03;8.90;;;1.73;;
80748;SDS011;70145;53.746;9.970;2024-03-23T08:46:28;10.55;;;3.03;;
80748;SDS011;70145;53.746;9.970;2024-03-23T08:48:54;11.73;;;1.80;;
80748;SDS011;70145;53.746;9.970;2024-03-23T08:51:19;5.28;;;1.20;;
80748;SDS011;70145;53.746;9.970;2024-03-23T08:53:45;8.37;;;2.47;;
80748;SDS011;70145;53.746;9.970;2024-03-23T08:56:10;10.55;;;1.42;;
80748;SDS011;70145;53.746;9.970;2024-03-23T08:58:36;8.98;;;1.88;;
80748;SDS011;70145;53.746;9.970;2024-03-23T09:01:07;7.25;;;1.27;;
80748;SDS011;70145;53.746;9.970;2024-03-23T09:03:33;6.00;;;1.40;;
80748;SDS011;70145;53.746;9.970;2024-03-23T09:06:00;10.57;;;2.15;;
80748;SDS011;70145;53.746;9.970;2024-03-23T09:08:26;9.77;;;2.45;;
80748;SDS011;70145;53.746;9.970;2024-03-23T09:10:52;6.40;;;1.40;;
80748;SDS011;70145;53.746;9.970;2024-03-23T09:13:17;9.23;;;1.60;;
80748;SDS011;70145;53.746;9.970;2024-03-23T09:15:46;5.63;;;1.38;;
80748;SDS011;70145;53.746;9.970;2024-03-23T09:18:13;9.38;;;2.33;;
80748;SDS011;70145;53.746;9.970;2024-03-23T09:20:39;7.60;;;1.67;;
80748;SDS011;70145;53.746;9.970;2024-03-23T09:23:04;9.87;;;1.77;;
80748;SDS011;70145;53.746;9.970;2024-03-23T09:25:30;5.72;;;1.50;;
80748;SDS011;70145;53.746;9.970;2024-03-23T09:27:55;9.17;;;1.87;;
80748;SDS011;70145;53.746;9.970;2024-03-23T09:30:20;9.47;;;1.73;;
80748;SDS011;70145;53.746;9.970;2024-03-23T09:32:46;9.75;;;1.90;;
80748;SDS011;70145;53.746;9.970;2024-03-23T09:35:11;10.95;;;1.33;;
80748;SDS011;70145;53.746;9.970;2024-03-23T09:37:38;9.93;;;1.60;;
80748;SDS011;70145;53.746;9.970;2024-03-23T09:40:05;7.97;;;1.42;;
80748;SDS011;70145;53.746;9.970;2024-03-23T09:42:34;8.63;;;1.30;;
80748;SDS011;70145;53.746;9.970;2024-03-23T09:44:59;6.50;;;0.90;;
80748;SDS011;70145;53.746;9.970;2024-03-23T09:47:25;8.10;;;1.20;;
80748;SDS011;70145;53.746;9.970;2024-03-23T09:49:51;7.45;;;1.00;;
80748;SDS011;70145;53.746;9.970;2024-03-23T09:52:17;6.05;;;0.90;;
80748;SDS011;70145;53.746;9.970;2024-03-23T09:54:42;6.82;;;1.23;;
80748;SDS011;70145;53.746;9.970;2024-03-23T09:57:08;5.37;;;1.23;;
80748;SDS011;70145;53.746;9.970;2024-03-23T09:59:33;7.22;;;1.15;;
80748;SDS011;70145;53.746;9.970;2024-03-23T10:01:59;7.68;;;1.10;;
80748;SDS011;70145;53.746;9.970;2024-03-23T10:04:35;6.15;;;1.55;;
80748;SDS011;70145;53.746;9.970;2024-03-23T10:07:18;6.45;;;1.15;;
80748;SDS011;70145;53.746;9.970;2024-03-23T10:09:44;5.38;;;1.08;;
80748;SDS011;70145;53.746;9.970;2024-03-23T10:12:11;5.00;;;1.20;;
80748;SDS011;70145;53.746;9.970;2024-03-23T10:14:39;5.60;;;1.30;;
80748;SDS011;70145;53.746;9.970;2024-03-23T10:17:20;6.13;;;1.15;;
80748;SDS011;70145;53.746;9.970;2024-03-23T10:19:49;7.60;;;1.42;;
80748;SDS011;70145;53.746;9.970;2024-03-23T10:22:20;7.45;;;1.27;;
80748;SDS011;70145;53.746;9.970;2024-03-23T10:24:46;3.58;;;1.00;;
80748;SDS011;70145;53.746;9.970;2024-03-23T10:27:15;4.25;;;0.60;;
80748;SDS011;70145;53.746;9.970;2024-03-23T10:29:48;5.60;;;0.50;;
80748;SDS011;70145;53.746;9.970;2024-03-23T10:32:14;4.45;;;1.05;;
80748;SDS011;70145;53.746;9.970;2024-03-23T10:34:41;3.85;;;0.82;;
80748;SDS011;70145;53.746;9.970;2024-03-23T10:37:07;4.07;;;0.90;;
80748;SDS011;70145;53.746;9.970;2024-03-23T10:39:37;3.85;;;0.60;;
80748;SDS011;70145;53.746;9.970;2024-03-23T10:42:04;2.72;;;0.52;;
80748;SDS011;70145;53.746;9.970;2024-03-23T10:44:31;4.97;;;0.70;;
80748;SDS011;70145;53.746;9.970;2024-03-23T10:46:57;6.32;;;1.27;;
80748;SDS011;70145;53.746;9.970;2024-03-23T10:49:29;4.55;;;0.68;;
80748;SDS011;70145;53.746;9.970;2024-03-23T10:52:02;6.63;;;0.95;;
80748;SDS011;70145;53.746;9.970;2024-03-23T10:54:32;3.53;;;0.63;;
80748;SDS011;70145;53.746;9.970;2024-03-23T10:57:05;4.45;;;0.70;;
80748;SDS011;70145;53.746;9.970;2024-03-23T10:59:34;2.47;;;0.93;;
80748;SDS011;70145;53.746;9.970;2024-03-23T11:02:02;3.28;;;0.50;;
80748;SDS011;70145;53.746;9.970;2024-03-23T11:04:38;4.68;;;0.50;;
80748;SDS011;70145;53.746;9.970;2024-03-23T11:07:28;6.35;;;0.90;;
80748;SDS011;70145;53.746;9.970;2024-03-23T11:09:58;6.15;;;0.60;;
80748;SDS011;70145;53.746;9.970;2024-03-23T11:14:49;3.47;;;0.63;;
80748;SDS011;70145;53.746;9.970;2024-03-23T11:17:20;4.93;;;0.80;;
80748;SDS011;70145;53.746;9.970;2024-03-23T11:19:53;4.40;;;0.85;;
80748;SDS011;70145;53.746;9.970;2024-03-23T11:22:59;5.18;;;1.08;;
80748;SDS011;70145;53.746;9.970;2024-03-23T11:27:57;0.85;;;0.35;;
80748;SDS011;70145;53.746;9.970;2024-03-23T11:30:34;2.90;;;0.35;;
80748;SDS011;70145;53.746;9.970;2024-03-23T11:32:59;0.85;;;0.10;;
80748;SDS011;70145;53.746;9.970;2024-03-23T11:35:30;2.05;;;0.40;;
80748;SDS011;70145;53.746;9.970;2024-03-23T11:38:04;0.45;;;0.10;;
80748;SDS011;70145;53.746;9.970;2024-03-23T11:40:30;1.00;;;0.10;;
80748;SDS011;70145;53.746;9.970;2024-03-23T11:43:00;2.45;;;0.32;;
80748;SDS011;70145;53.746;9.970;2024-03-23T11:45:27;1.88;;;0.30;;
80748;SDS011;70145;53.746;9.970;2024-03-23T11:48:15;1.13;;;0.15;;
80748;SDS011;70145;53.746;9.970;2024-03-23T11:50:43;2.60;;;0.43;;
80748;SDS011;70145;53.746;9.970;2024-03-23T11:55:49;3.42;;;0.75;;
80748;SDS011;70145;53.746;9.970;2024-03-23T11:58:16;5.88;;;0.70;;
80748;SDS011;70145;53.746;9.970;2024-03-23T12:00:43;0.90;;;0.43;;
80748;SDS011;70145;53.746;9.970;2024-03-23T12:03:18;2.00;;;0.40;;
80748;SDS011;70145;53.746;9.970;2024-03-23T12:05:47;2.85;;;0.30;;
80748;SDS011;70145;53.746;9.970;2024-03-23T12:08:15;2.20;;;0.65;;
80748;SDS011;70145;53.746;9.970;2024-03-23T12:10:47;0.90;;;0.30;;
80748;SDS011;70145;53.746;9.970;2024-03-23T12:13:19;2.45;;;0.20;;
80748;SDS011;70145;53.746;9.970;2024-03-23T12:15:46;0.85;;;0.10;;
80748;SDS011;70145;53.746;9.970;2024-03-23T12:18:12;0.82;;;0.22;;
80748;SDS011;70145;53.746;9.970;2024-03-23T12:20:38;2.30;;;1.05;;
80748;SDS011;70145;53.746;9.970;2024-03-23T12:23:07;1.88;;;0.50;;
80748;SDS011;70145;53.746;9.970;2024-03-23T12:25:34;1.02;;;0.20;;
80748;SDS011;70145;53.746;9.970;2024-03-23T12:28:03;1.10;;;0.30;;
80748;SDS011;70145;53.746;9.970;2024-03-23T12:30:31;3.22;;;0.70;;
80748;SDS011;70145;53.746;9.970;2024-03-23T12:32:57;1.13;;;0.20;;
80748;SDS011;70145;53.746;9.970;2024-03-23T12:35:22;2.17;;;0.40;;
80748;SDS011;70145;53.746;9.970;2024-03-23T12:37:48;0.80;;;0.30;;
80748;SDS011;70145;53.746;9.970;2024-03-23T12:40:13;4.13;;;0.50;;
80748;SDS011;70145;53.746;9.970;2024-03-23T12:42:39;0.93;;;0.10;;
80748;SDS011;70145;53.746;9.970;2024-03-23T12:45:04;3.07;;;1.17;;
80748;SDS011;70145;53.746;9.970;2024-03-23T12:47:30;1.13;;;0.10;;
80748;SDS011;70145;53.746;9.970;2024-03-23T12:49:55;0.73;;;0.20;;
80748;SDS011;70145;53.746;9.970;2024-03-23T12:52:21;2.53;;;0.20;;
80748;SDS011;70145;53.746;9.970;2024-03-23T12:54:49;2.65;;;1.08;;
80748;SDS011;70145;53.746;9.970;2024-03-23T12:57:14;1.38;;;0.40;;
80748;SDS011;70145;53.746;9.970;2024-03-23T12:59:39;1.07;;;0.20;;
80748;SDS011;70145;53.746;9.970;2024-03-23T13:02:05;0.80;;;0.00;;
80748;SDS011;70145;53.746;9.970;2024-03-23T13:04:32;1.73;;;0.13;;
80748;SDS011;70145;53.746;9.970;2024-03-23T13:06:57;1.90;;;0.27;;
80748;SDS011;70145;53.746;9.970;2024-03-23T13:09:22;2.07;;;0.47;;
80748;SDS011;70145;53.746;9.970;2024-03-23T13:11:48;0.47;;;0.13;;
80748;SDS011;70145;53.746;9.970;2024-03-23T13:14:13;4.13;;;0.70;;
80748;SDS011;70145;53.746;9.970;2024-03-23T13:16:41;2.25;;;0.95;;
80748;SDS011;70145;53.746;9.970;2024-03-23T13:19:07;5.32;;;0.60;;
80748;SDS011;70145;53.746;9.970;2024-03-23T13:21:32;2.63;;;0.37;;
80748;SDS011;70145;53.746;9.970;2024-03-23T13:23:57;1.07;;;0.50;;
80748;SDS011;70145;53.746;9.970;2024-03-23T13:26:22;1.20;;;0.20;;
80748;SDS011;70145;53.746;9.970;2024-03-23T13:28:48;1.50;;;0.28;;
80748;SDS011;70145;53.746;9.970;2024-03-23T13:31:13;2.77;;;0.47;;
80748;SDS011;70145;53.746;9.970;2024-03-23T13:33:38;3.00;;;0.50;;
80748;SDS011;70145;53.746;9.970;2024-03-23T13:36:04;1.60;;;0.22;;
80748;SDS011;70145;53.746;9.970;2024-03-23T13:38:30;1.67;;;0.20;;
80748;SDS011;70145;53.746;9.970;2024-03-23T13:40:56;0.93;;;0.10;;
80748;SDS011;70145;53.746;9.970;2024-03-23T13:43:23;1.70;;;0.13;;
80748;SDS011;70145;53.746;9.970;2024-03-23T13:45:51;0.88;;;0.30;;
80748;SDS011;70145;53.746;9.970;2024-03-23T13:48:24;0.17;;;0.03;;
80748;SDS011;70145;53.746;9.970;2024-03-23T13:51:00;0.82;;;0.00;;
80748;SDS011;70145;53.746;9.970;2024-03-23T13:53:27;2.35;;;0.15;;
80748;SDS011;70145;53.746;9.970;2024-03-23T13:55:52;1.42;;;0.25;;
80748;SDS011;70145;53.746;9.970;2024-03-23T13:58:18;1.15;;;0.30;;
80748;SDS011;70145;53.746;9.970;2024-03-23T14:00:43;0.75;;;0.38;;
80748;SDS011;70145;53.746;9.970;2024-03-23T14:03:09;2.20;;;0.43;;
80748;SDS011;70145;53.746;9.970;2024-03-23T14:05:35;2.72;;;0.45;;
80748;SDS011;70145;53.746;9.970;2024-03-23T14:08:01;2.00;;;0.43;;
80748;SDS011;70145;53.746;9.970;2024-03-23T14:10:26;2.38;;;0.55;;
80748;SDS011;70145;53.746;9.970;2024-03-23T14:12:52;3.15;;;0.43;;
80748;SDS011;70145;53.746;9.970;2024-03-23T14:15:18;1.25;;;0.40;;
80748;SDS011;70145;53.746;9.970;2024-03-23T14:17:43;1.52;;;0.30;;
80748;SDS011;70145;53.746;9.970;2024-03-23T14:20:09;2.60;;;0.70;;
80748;SDS011;70145;53.746;9.970;2024-03-23T14:22:36;2.10;;;0.60;;
80748;SDS011;70145;53.746;9.970;2024-03-23T14:25:01;2.13;;;0.70;;
80748;SDS011;70145;53.746;9.970;2024-03-23T14:27:27;2.95;;;1.00;;
80748;SDS011;70145;53.746;9.970;2024-03-23T14:29:52;2.57;;;0.57;;
80748;SDS011;70145;53.746;9.970;2024-03-23T14:32:17;3.30;;;0.68;;
80748;SDS011;70145;53.746;9.970;2024-03-23T14:34:43;2.73;;;0.40;;
80748;SDS011;70145;53.746;9.970;2024-03-23T14:37:08;3.73;;;1.00;;
80748;SDS011;70145;53.746;9.970;2024-03-23T14:39:33;4.90;;;1.63;;
80748;SDS011;70145;53.746;9.970;2024-03-23T14:41:59;5.63;;;0.93;;
80748;SDS011;70145;53.746;9.970;2024-03-23T14:44:26;4.53;;;1.08;;
80748;SDS011;70145;53.746;9.970;2024-03-23T14:46:53;5.13;;;0.93;;
80748;SDS011;70145;53.746;9.970;2024-03-23T14:49:18;3.50;;;1.17;;
80748;SDS011;70145;53.746;9.970;2024-03-23T14:51:44;4.50;;;1.23;;
80748;SDS011;70145;53.746;9.970;2024-03-23T14:54:09;4.77;;;1.27;;
80748;SDS011;70145;53.746;9.970;2024-03-23T14:56:35;4.20;;;0.95;;
80748;SDS011;70145;53.746;9.970;2024-03-23T14:59:00;5.28;;;0.93;;
80748;SDS011;70145;53.746;9.970;2024-03-23T15:01:26;4.07;;;0.82;;
80748;SDS011;70145;53.746;9.970;2024-03-23T15:03:51;3.13;;;0.50;;
80748;SDS011;70145;53.746;9.970;2024-03-23T15:06:18;6.38;;;1.70;;
80748;SDS011;70145;53.746;9.970;2024-03-23T15:08:44;4.30;;;0.80;;
80748;SDS011;70145;53.746;9.970;2024-03-23T15:11:11;2.78;;;0.50;;
80748;SDS011;70145;53.746;9.970;2024-03-23T15:13:36;4.60;;;0.77;;
80748;SDS011;70145;53.746;9.970;2024-03-23T15:16:03;2.42;;;0.75;;
80748;SDS011;70145;53.746;9.970;2024-03-23T15:18:29;4.18;;;0.57;;
80748;SDS011;70145;53.746;9.970;2024-03-23T15:21:04;2.63;;;0.65;;
80748;SDS011;70145;53.746;9.970;2024-03-23T15:23:36;2.70;;;0.82;;
80748;SDS011;70145;53.746;9.970;2024-03-23T15:26:02;4.18;;;0.82;;
80748;SDS011;70145;53.746;9.970;2024-03-23T15:28:29;4.13;;;1.15;;
80748;SDS011;70145;53.746;9.970;2024-03-23T15:31:27;4.35;;;0.57;;
80748;SDS011;70145;53.746;9.970;2024-03-23T15:33:53;3.47;;;0.52;;
80748;SDS011;70145;53.746;9.970;2024-03-23T15:36:18;4.17;;;0.60;;
80748;SDS011;70145;53.746;9.970;2024-03-23T15:38:44;1.67;;;0.30;;
80748;SDS011;70145;53.746;9.970;2024-03-23T15:41:10;3.00;;;0.88;;
80748;SDS011;70145;53.746;9.970;2024-03-23T15:43:35;3.08;;;0.45;;
80748;SDS011;70145;53.746;9.970;2024-03-23T15:46:02;1.92;;;0.50;;
80748;SDS011;70145;53.746;9.970;2024-03-23T15:48:28;1.40;;;0.30;;
80748;SDS011;70145;53.746;9.970;2024-03-23T15:50:56;2.72;;;0.57;;